Stallovarre — LHBG — position and weather

sailwx.info

Track history (hours):
 
Tides and Currents Weather Stations Pressure Air Temp Water Temp Dewpoint Dewpoint Depression Visibility Wind Speed Wind Dir Waves Ship Positions

Stallovarre

Last reported at 2015-Jul-28 04:33 UTC. Time now 2015-Jul-28 05:49 UTC.
Position N 59°49' E 005°39'.

Length 54 m; draft 3.5 m.

MMSI: 257374400.

Date/timePositionNaut miles runAvg speedWind from/ knotsBaromVisibWave heightAir tempDewpointWater temp
2015-Jul-28 04:33N 59°49' E 005°39'7 6.9
2015-Jul-28 03:32N 59°45' E 005°28'0 0.0
2015-Jul-28 02:32N 59°45' E 005°28'0 0.0
2015-Jul-28 01:33N 59°45' E 005°28'0 0.0
2015-Jul-28 00:33N 59°45' E 005°28'0 0.0
2015-Jul-27 23:32N 59°45' E 005°28'0 0.0
2015-Jul-27 22:32N 59°45' E 005°28'0 0.0
2015-Jul-27 21:33N 59°45' E 005°28'0 0.0
2015-Jul-27 20:33N 59°45' E 005°28'0 0.0
2015-Jul-27 19:32N 59°45' E 005°28'0 0.0
2015-Jul-27 18:32N 59°45' E 005°28'0 0.0
2015-Jul-27 17:33N 59°45' E 005°28'7 7.0
2015-Jul-27 16:33N 59°49' E 005°39'6 5.8
2015-Jul-27 15:33N 59°45' E 005°30'1 1.4
2015-Jul-27 14:33N 59°46' E 005°33'4 4.2
2015-Jul-27 13:32N 59°49' E 005°39'5 5.4
2015-Jul-27 12:33N 59°46' E 005°31'1 0.9
2015-Jul-27 11:33N 59°46' E 005°32'5 4.5
2015-Jul-27 10:32N 59°49' E 005°39'6 5.8
2015-Jul-27 09:34N 59°45' E 005°30'2 1.7
2015-Jul-27 08:32N 59°46' E 005°33'4 4.2
2015-Jul-27 07:32N 59°49' E 005°39'6 6.1
2015-Jul-27 06:33N 59°45' E 005°30'2 2.0
2015-Jul-27 05:33N 59°46' E 005°33'4 4.0
2015-Jul-27 04:33N 59°49' E 005°39'7 7.0
2015-Jul-27 03:33N 59°45' E 005°28'0 0.0
2015-Jul-27 02:33N 59°45' E 005°28'0 0.0
2015-Jul-27 01:32N 59°45' E 005°28'0 0.0
2015-Jul-27 00:33N 59°45' E 005°28'0 0.0
2015-Jul-26 23:33N 59°45' E 005°28'0 0.0
2015-Jul-26 22:33N 59°45' E 005°28'0 0.0
2015-Jul-26 21:33N 59°45' E 005°28'0 0.0
2015-Jul-26 20:32N 59°45' E 005°28'0 0.0
2015-Jul-26 19:33N 59°45' E 005°28'1 1.0
2015-Jul-26 18:33N 59°45' E 005°30'2 2.2
2015-Jul-26 17:33N 59°46' E 005°33'4 4.1
2015-Jul-26 16:33N 59°49' E 005°39'6 5.9
2015-Jul-26 15:33N 59°45' E 005°30'2 1.7
2015-Jul-26 14:33N 59°46' E 005°33'4 4.3
2015-Jul-26 13:33N 59°49' E 005°39'6 5.9
2015-Jul-26 12:33N 59°45' E 005°30'2 1.9
2015-Jul-26 11:33N 59°46' E 005°34'3 3.2
2015-Jul-26 10:33N 59°45' E 005°28'0 0.0
2015-Jul-26 09:32N 59°45' E 005°28'0 0.0
2015-Jul-26 08:32N 59°45' E 005°28'0 0.0
2015-Jul-26 07:32N 59°45' E 005°28'0 0.0
2015-Jul-26 06:33N 59°45' E 005°28'0 0.0
2015-Jul-26 05:33N 59°45' E 005°28'0 0.0
2015-Jul-26 04:32N 59°45' E 005°28'0 0.0
2015-Jul-26 03:33N 59°45' E 005°28'0 0.0
2015-Jul-26 02:33N 59°45' E 005°28'0 0.0
2015-Jul-26 01:33N 59°45' E 005°28'0 0.0
2015-Jul-26 00:32N 59°45' E 005°28'0 0.0
2015-Jul-25 23:32N 59°45' E 005°28'0 0.0
2015-Jul-25 22:33N 59°45' E 005°28'0 0.0
2015-Jul-25 21:32N 59°45' E 005°28'0 0.0
2015-Jul-25 20:33N 59°45' E 005°28'0 0.0
2015-Jul-25 19:33N 59°45' E 005°28'0 0.0
2015-Jul-25 18:32N 59°45' E 005°28'0 0.0
2015-Jul-25 17:32N 59°45' E 005°28'7 7.0
2015-Jul-25 16:33N 59°49' E 005°39'6 6.2
2015-Jul-25 15:33N 59°45' E 005°30'2 2.1
2015-Jul-25 14:33N 59°46' E 005°33'4 4.1
2015-Jul-25 13:33N 59°49' E 005°40'6 6.0
2015-Jul-25 12:33N 59°45' E 005°30'2 2.2
2015-Jul-25 11:33N 59°46' E 005°34'4 3.9
2015-Jul-25 10:33N 59°49' E 005°39'7 7.0
2015-Jul-25 09:33N 59°45' E 005°28'4 4.1
2015-Jul-25 08:33N 59°47' E 005°35'4 4.0
2015-Jul-25 07:33N 59°45' E 005°28'0 0.1
2015-Jul-25 06:32N 59°45' E 005°28'0 0.0
2015-Jul-25 05:33N 59°45' E 005°28'0 0.0
2015-Jul-25 04:33N 59°45' E 005°28'0 0.0
2015-Jul-25 03:33N 59°45' E 005°28'0 0.0
2015-Jul-25 02:32N 59°45' E 005°28'0 0.0
2015-Jul-25 01:32N 59°45' E 005°28'0 0.0
2015-Jul-25 00:32N 59°45' E 005°28'0 0.0
2015-Jul-24 23:32N 59°45' E 005°28'0 0.0
2015-Jul-24 22:32N 59°45' E 005°28'0 0.0
2015-Jul-24 21:32N 59°45' E 005°28'0 0.0
2015-Jul-24 20:33N 59°45' E 005°28'7 6.9
2015-Jul-24 19:33N 59°49' E 005°39'6 5.7
2015-Jul-24 18:33N 59°45' E 005°31'2 1.8
2015-Jul-24 17:33N 59°46' E 005°33'4 3.9
2015-Jul-24 16:33N 59°49' E 005°39'5 5.2
2015-Jul-24 15:33N 59°46' E 005°31'1 0.9
2015-Jul-24 14:33N 59°46' E 005°33'4 4.5
2015-Jul-24 13:33N 59°49' E 005°39'5 5.3
2015-Jul-24 12:33N 59°46' E 005°31'2 1.7
2015-Jul-24 11:33N 59°47' E 005°34'4 3.6
2015-Jul-24 10:33N 59°49' E 005°39'5 5.5
2015-Jul-24 09:33N 59°45' E 005°31'2 1.7
2015-Jul-24 08:33N 59°47' E 005°34'4 3.8
2015-Jul-24 07:33N 59°49' E 005°39'6 6.0
2015-Jul-24 06:33N 59°45' E 005°30'2 2.3
2015-Jul-24 05:33N 59°47' E 005°34'4 3.6
2015-Jul-24 04:33N 59°49' E 005°39'7 7.0
2015-Jul-24 03:33N 59°45' E 005°28'0 0.0
2015-Jul-24 02:32N 59°45' E 005°28'0 0.0
2015-Jul-24 01:32N 59°45' E 005°28'0 0.0
2015-Jul-24 00:32N 59°45' E 005°28'0 0.0
2015-Jul-23 23:33N 59°45' E 005°28'0 0.0
2015-Jul-23 22:33N 59°45' E 005°28'0 0.0
2015-Jul-23 21:33N 59°45' E 005°28'0 0.0
2015-Jul-23 20:32N 59°45' E 005°28'0 0.0
2015-Jul-23 19:33N 59°45' E 005°28'0 0.0
2015-Jul-23 18:33N 59°45' E 005°28'0 0.0
2015-Jul-23 17:33N 59°45' E 005°28'7 7.0
2015-Jul-23 16:33N 59°49' E 005°40'5 4.4
2015-Jul-23 15:29N 59°46' E 005°32'0 0.3
2015-Jul-23 14:33N 59°46' E 005°32'4 4.4
2015-Jul-23 13:32N 59°49' E 005°39'6 5.8
2015-Jul-23 12:33N 59°45' E 005°30'2 1.7
2015-Jul-23 11:33N 59°46' E 005°33'4 4.1
2015-Jul-23 10:33N 59°49' E 005°39'6 6.1
2015-Jul-23 09:33N 59°45' E 005°30'2 2.1
2015-Jul-23 08:32N 59°46' E 005°33'4 4.2
2015-Jul-23 07:33N 59°49' E 005°39'6 6.0
2015-Jul-23 06:33N 59°45' E 005°30'2 2.2
2015-Jul-23 05:33N 59°47' E 005°34'4 3.8
2015-Jul-23 04:33N 59°49' E 005°39'7 7.0
2015-Jul-23 03:32N 59°45' E 005°28'0 0.0
2015-Jul-23 02:33N 59°45' E 005°28'0 0.0
2015-Jul-23 01:34N 59°45' E 005°28'0 0.0
2015-Jul-23 00:32N 59°45' E 005°28'0 0.0
2015-Jul-22 23:32N 59°45' E 005°28'0 0.0
2015-Jul-22 22:33N 59°45' E 005°28'0 0.0
2015-Jul-22 21:32N 59°45' E 005°28'0 0.0
2015-Jul-22 20:32N 59°45' E 005°28'0 0.0
2015-Jul-22 19:32N 59°45' E 005°28'0 0.0
2015-Jul-22 18:33N 59°45' E 005°28'0 0.0
2015-Jul-22 17:32N 59°45' E 005°28'7 7.0
2015-Jul-22 16:33N 59°49' E 005°39'6 6.0
2015-Jul-22 15:33N 59°45' E 005°30'2 2.1
2015-Jul-22 14:33N 59°47' E 005°34'4 3.8
2015-Jul-22 13:33N 59°49' E 005°39'5 4.8
2015-Jul-22 12:33N 59°46' E 005°32'1 1.0
2015-Jul-22 11:33N 59°46' E 005°34'4 3.7
2015-Jul-22 10:33N 59°49' E 005°39'6 5.6
2015-Jul-22 09:33N 59°45' E 005°31'2 1.8
2015-Jul-22 08:33N 59°46' E 005°34'4 3.9
2015-Jul-22 07:33N 59°49' E 005°39'6 6.0
2015-Jul-22 06:33N 59°45' E 005°30'2 2.2
2015-Jul-22 05:33N 59°46' E 005°34'4 3.8
2015-Jul-22 04:33N 59°49' E 005°39'7 7.0
2015-Jul-22 03:33N 59°45' E 005°28'0 0.0
2015-Jul-22 02:32N 59°45' E 005°28'0 0.0
2015-Jul-22 01:32N 59°45' E 005°28'0 0.0
2015-Jul-22 00:33N 59°45' E 005°28'0 0.0
2015-Jul-21 23:32N 59°45' E 005°28'0 0.0
2015-Jul-21 22:14N 59°45' E 005°28'0 0.0
2015-Jul-21 21:33N 59°45' E 005°28'0 0.0
2015-Jul-21 20:33N 59°45' E 005°28'0 0.0
2015-Jul-21 19:33N 59°45' E 005°28'0 0.0
2015-Jul-21 18:33N 59°45' E 005°28'0 0.0
2015-Jul-21 17:32N 59°45' E 005°28'7 7.1
2015-Jul-21 16:33N 59°49' E 005°40'6 5.9
2015-Jul-21 15:33N 59°45' E 005°30'2 1.8
2015-Jul-21 14:33N 59°46' E 005°33'4 4.0
2015-Jul-21 13:33N 59°49' E 005°39'5 5.3
2015-Jul-21 12:32N 59°46' E 005°31'1 1.2
2015-Jul-21 11:33N 59°46' E 005°33'4 4.2
2015-Jul-21 10:33N 59°49' E 005°39'5 5.5
2015-Jul-21 09:33N 59°45' E 005°31'1 1.3
2015-Jul-21 08:32N 59°46' E 005°33'4 4.3
2015-Jul-21 07:33N 59°49' E 005°39'6 5.9
2015-Jul-21 06:33N 59°45' E 005°30'2 2.3
2015-Jul-21 05:33N 59°46' E 005°34'4 3.8
2015-Jul-21 04:33N 59°49' E 005°39'7 7.0
2015-Jul-21 03:33N 59°45' E 005°28'0 0.0
2015-Jul-21 02:33N 59°45' E 005°28'0 0.0
2015-Jul-21 01:32N 59°45' E 005°28'0 0.0
2015-Jul-21 00:32N 59°45' E 005°28'0 0.0
2015-Jul-20 23:32N 59°45' E 005°28'0 0.0
2015-Jul-20 22:33N 59°45' E 005°28'0 0.0
2015-Jul-20 21:32N 59°45' E 005°28'0 0.0
2015-Jul-20 20:32N 59°45' E 005°28'0 0.0
2015-Jul-20 19:32N 59°45' E 005°28'0 0.0
2015-Jul-20 18:33N 59°45' E 005°28'0 0.0
2015-Jul-20 17:32N 59°45' E 005°28'7 7.2
2015-Jul-20 16:33N 59°49' E 005°39'6 5.8
2015-Jul-20 15:33N 59°45' E 005°30'2 2.0
2015-Jul-20 14:33N 59°46' E 005°33'4 3.9
2015-Jul-20 13:33N 59°49' E 005°39'6 5.9
2015-Jul-20 12:33N 59°45' E 005°30'1 1.0
2015-Jul-20 11:33N 59°46' E 005°32'5 4.9
2015-Jul-20 10:32N 59°49' E 005°39'6 5.8
2015-Jul-20 09:33N 59°45' E 005°31'1 1.5
2015-Jul-20 08:33N 59°46' E 005°33'4 4.3
2015-Jul-20 07:33N 59°49' E 005°39'6 6.1
2015-Jul-20 06:33N 59°45' E 005°30'2 1.9
2015-Jul-20 05:32N 59°46' E 005°33'4 4.1
2015-Jul-20 04:33N 59°49' E 005°39'7 7.0
2015-Jul-20 03:32N 59°45' E 005°28'0 0.0
2015-Jul-20 00:33N 59°45' E 005°28'0 0.0
2015-Jul-19 23:33N 59°45' E 005°28'0 0.0
2015-Jul-19 22:32N 59°45' E 005°28'0 0.0
2015-Jul-19 21:33N 59°45' E 005°28'0 0.0
2015-Jul-19 20:32N 59°45' E 005°28'0 0.0
2015-Jul-19 19:33N 59°45' E 005°28'1 0.6
2015-Jul-19 18:33N 59°45' E 005°29'3 2.5
2015-Jul-19 17:33N 59°46' E 005°33'4 4.1
2015-Jul-19 16:33N 59°49' E 005°39'5 5.3
2015-Jul-19 15:33N 59°46' E 005°31'2 1.6
2015-Jul-19 14:33N 59°47' E 005°34'4 3.7
2015-Jul-19 13:33N 59°49' E 005°39'6 6.0
2015-Jul-19 12:33N 59°45' E 005°30'2 2.1
2015-Jul-19 11:33N 59°47' E 005°33'3 3.1
2015-Jul-19 10:32N 59°45' E 005°28'0 0.0
2015-Jul-19 09:32N 59°45' E 005°28'0 0.0
2015-Jul-19 08:33N 59°45' E 005°28'0 0.0
2015-Jul-19 07:32N 59°45' E 005°28'0 0.0
2015-Jul-19 06:34N 59°45' E 005°28'0 0.0
2015-Jul-19 05:32N 59°45' E 005°28'0 0.0
2015-Jul-19 04:33N 59°45' E 005°28'0 0.0
2015-Jul-19 00:32N 59°45' E 005°28'0 0.0
2015-Jul-18 23:32N 59°45' E 005°28'0 0.0
2015-Jul-18 22:33N 59°45' E 005°28'0 0.0
2015-Jul-18 21:32N 59°45' E 005°28'0 0.0
2015-Jul-18 20:32N 59°45' E 005°28'0 0.0
2015-Jul-18 19:32N 59°45' E 005°28'0 0.0
2015-Jul-18 18:33N 59°45' E 005°28'0 0.0
2015-Jul-18 17:33N 59°45' E 005°28'7 6.9
2015-Jul-18 16:33N 59°49' E 005°39'6 6.1
2015-Jul-18 15:33N 59°45' E 005°30'2 2.3
2015-Jul-18 14:33N 59°46' E 005°34'4 3.9
2015-Jul-18 13:33N 59°49' E 005°39'6 6.4
2015-Jul-18 12:33N 59°45' E 005°30'2 2.1
2015-Jul-18 11:33N 59°46' E 005°33'4 4.3
2015-Jul-18 10:33N 59°49' E 005°40'7 6.9
2015-Jul-18 09:32N 59°45' E 005°28'5 4.7
2015-Jul-18 08:33N 59°48' E 005°35'4 4.3
2015-Jul-18 07:33N 59°45' E 005°29'0 0.4
2015-Jul-18 06:32N 59°45' E 005°28'0 0.0
2015-Jul-18 05:33N 59°45' E 005°28'  
Track history (hours):
 
Tides and Currents Weather Stations Pressure Air Temp Water Temp Dewpoint Dewpoint Depression Visibility Wind Speed Wind Dir Waves Ship Positions

Stallovarre

Last reported at 2015-Jul-28 04:33 UTC. Time now 2015-Jul-28 05:49 UTC.
Position N 59°49' E 005°39'.

Length 54 m; draft 3.5 m.

MMSI: 257374400.

Date/timePositionNaut miles runAvg speedWind from/ knotsBaromVisibWave heightAir tempDewpointWater temp
2015-Jul-28 04:33N 59°49' E 005°39'7 6.9
2015-Jul-28 03:32N 59°45' E 005°28'0 0.0
2015-Jul-28 02:32N 59°45' E 005°28'0 0.0
2015-Jul-28 01:33N 59°45' E 005°28'0 0.0
2015-Jul-28 00:33N 59°45' E 005°28'0 0.0
2015-Jul-27 23:32N 59°45' E 005°28'0 0.0
2015-Jul-27 22:32N 59°45' E 005°28'0 0.0
2015-Jul-27 21:33N 59°45' E 005°28'0 0.0
2015-Jul-27 20:33N 59°45' E 005°28'0 0.0
2015-Jul-27 19:32N 59°45' E 005°28'0 0.0
2015-Jul-27 18:32N 59°45' E 005°28'0 0.0
2015-Jul-27 17:33N 59°45' E 005°28'7 7.0
2015-Jul-27 16:33N 59°49' E 005°39'6 5.8
2015-Jul-27 15:33N 59°45' E 005°30'1 1.4
2015-Jul-27 14:33N 59°46' E 005°33'4 4.2
2015-Jul-27 13:32N 59°49' E 005°39'5 5.4
2015-Jul-27 12:33N 59°46' E 005°31'1 0.9
2015-Jul-27 11:33N 59°46' E 005°32'5 4.5
2015-Jul-27 10:32N 59°49' E 005°39'6 5.8
2015-Jul-27 09:34N 59°45' E 005°30'2 1.7
2015-Jul-27 08:32N 59°46' E 005°33'4 4.2
2015-Jul-27 07:32N 59°49' E 005°39'6 6.1
2015-Jul-27 06:33N 59°45' E 005°30'2 2.0
2015-Jul-27 05:33N 59°46' E 005°33'4 4.0
2015-Jul-27 04:33N 59°49' E 005°39'7 7.0
2015-Jul-27 03:33N 59°45' E 005°28'0 0.0
2015-Jul-27 02:33N 59°45' E 005°28'0 0.0
2015-Jul-27 01:32N 59°45' E 005°28'0 0.0
2015-Jul-27 00:33N 59°45' E 005°28'0 0.0
2015-Jul-26 23:33N 59°45' E 005°28'0 0.0
2015-Jul-26 22:33N 59°45' E 005°28'0 0.0
2015-Jul-26 21:33N 59°45' E 005°28'0 0.0
2015-Jul-26 20:32N 59°45' E 005°28'0 0.0
2015-Jul-26 19:33N 59°45' E 005°28'1 1.0
2015-Jul-26 18:33N 59°45' E 005°30'2 2.2
2015-Jul-26 17:33N 59°46' E 005°33'4 4.1
2015-Jul-26 16:33N 59°49' E 005°39'6 5.9
2015-Jul-26 15:33N 59°45' E 005°30'2 1.7
2015-Jul-26 14:33N 59°46' E 005°33'4 4.3
2015-Jul-26 13:33N 59°49' E 005°39'6 5.9
2015-Jul-26 12:33N 59°45' E 005°30'2 1.9
2015-Jul-26 11:33N 59°46' E 005°34'3 3.2
2015-Jul-26 10:33N 59°45' E 005°28'0 0.0
2015-Jul-26 09:32N 59°45' E 005°28'0 0.0
2015-Jul-26 08:32N 59°45' E 005°28'0 0.0
2015-Jul-26 07:32N 59°45' E 005°28'0 0.0
2015-Jul-26 06:33N 59°45' E 005°28'0 0.0
2015-Jul-26 05:33N 59°45' E 005°28'0 0.0
2015-Jul-26 04:32N 59°45' E 005°28'0 0.0
2015-Jul-26 03:33N 59°45' E 005°28'0 0.0
2015-Jul-26 02:33N 59°45' E 005°28'0 0.0
2015-Jul-26 01:33N 59°45' E 005°28'0 0.0
2015-Jul-26 00:32N 59°45' E 005°28'0 0.0
2015-Jul-25 23:32N 59°45' E 005°28'0 0.0
2015-Jul-25 22:33N 59°45' E 005°28'0 0.0
2015-Jul-25 21:32N 59°45' E 005°28'0 0.0
2015-Jul-25 20:33N 59°45' E 005°28'0 0.0
2015-Jul-25 19:33N 59°45' E 005°28'0 0.0
2015-Jul-25 18:32N 59°45' E 005°28'0 0.0
2015-Jul-25 17:32N 59°45' E 005°28'7 7.0
2015-Jul-25 16:33N 59°49' E 005°39'6 6.2
2015-Jul-25 15:33N 59°45' E 005°30'2 2.1
2015-Jul-25 14:33N 59°46' E 005°33'4 4.1
2015-Jul-25 13:33N 59°49' E 005°40'6 6.0
2015-Jul-25 12:33N 59°45' E 005°30'2 2.2
2015-Jul-25 11:33N 59°46' E 005°34'4 3.9
2015-Jul-25 10:33N 59°49' E 005°39'7 7.0
2015-Jul-25 09:33N 59°45' E 005°28'4 4.1
2015-Jul-25 08:33N 59°47' E 005°35'4 4.0
2015-Jul-25 07:33N 59°45' E 005°28'0 0.1
2015-Jul-25 06:32N 59°45' E 005°28'0 0.0
2015-Jul-25 05:33N 59°45' E 005°28'0 0.0
2015-Jul-25 04:33N 59°45' E 005°28'0 0.0
2015-Jul-25 03:33N 59°45' E 005°28'0 0.0
2015-Jul-25 02:32N 59°45' E 005°28'0 0.0
2015-Jul-25 01:32N 59°45' E 005°28'0 0.0
2015-Jul-25 00:32N 59°45' E 005°28'0 0.0
2015-Jul-24 23:32N 59°45' E 005°28'0 0.0
2015-Jul-24 22:32N 59°45' E 005°28'0 0.0
2015-Jul-24 21:32N 59°45' E 005°28'0 0.0
2015-Jul-24 20:33N 59°45' E 005°28'7 6.9
2015-Jul-24 19:33N 59°49' E 005°39'6 5.7
2015-Jul-24 18:33N 59°45' E 005°31'2 1.8
2015-Jul-24 17:33N 59°46' E 005°33'4 3.9
2015-Jul-24 16:33N 59°49' E 005°39'5 5.2
2015-Jul-24 15:33N 59°46' E 005°31'1 0.9
2015-Jul-24 14:33N 59°46' E 005°33'4 4.5
2015-Jul-24 13:33N 59°49' E 005°39'5 5.3
2015-Jul-24 12:33N 59°46' E 005°31'2 1.7
2015-Jul-24 11:33N 59°47' E 005°34'4 3.6
2015-Jul-24 10:33N 59°49' E 005°39'5 5.5
2015-Jul-24 09:33N 59°45' E 005°31'2 1.7
2015-Jul-24 08:33N 59°47' E 005°34'4 3.8
2015-Jul-24 07:33N 59°49' E 005°39'6 6.0
2015-Jul-24 06:33N 59°45' E 005°30'2 2.3
2015-Jul-24 05:33N 59°47' E 005°34'4 3.6
2015-Jul-24 04:33N 59°49' E 005°39'7 7.0
2015-Jul-24 03:33N 59°45' E 005°28'0 0.0
2015-Jul-24 02:32N 59°45' E 005°28'0 0.0
2015-Jul-24 01:32N 59°45' E 005°28'0 0.0
2015-Jul-24 00:32N 59°45' E 005°28'0 0.0
2015-Jul-23 23:33N 59°45' E 005°28'0 0.0
2015-Jul-23 22:33N 59°45' E 005°28'0 0.0
2015-Jul-23 21:33N 59°45' E 005°28'0 0.0
2015-Jul-23 20:32N 59°45' E 005°28'0 0.0
2015-Jul-23 19:33N 59°45' E 005°28'0 0.0
2015-Jul-23 18:33N 59°45' E 005°28'0 0.0
2015-Jul-23 17:33N 59°45' E 005°28'7 7.0
2015-Jul-23 16:33N 59°49' E 005°40'5 4.4
2015-Jul-23 15:29N 59°46' E 005°32'0 0.3
2015-Jul-23 14:33N 59°46' E 005°32'4 4.4
2015-Jul-23 13:32N 59°49' E 005°39'6 5.8
2015-Jul-23 12:33N 59°45' E 005°30'2 1.7
2015-Jul-23 11:33N 59°46' E 005°33'4 4.1
2015-Jul-23 10:33N 59°49' E 005°39'6 6.1
2015-Jul-23 09:33N 59°45' E 005°30'2 2.1
2015-Jul-23 08:32N 59°46' E 005°33'4 4.2
2015-Jul-23 07:33N 59°49' E 005°39'6 6.0
2015-Jul-23 06:33N 59°45' E 005°30'2 2.2
2015-Jul-23 05:33N 59°47' E 005°34'4 3.8
2015-Jul-23 04:33N 59°49' E 005°39'7 7.0
2015-Jul-23 03:32N 59°45' E 005°28'0 0.0
2015-Jul-23 02:33N 59°45' E 005°28'0 0.0
2015-Jul-23 01:34N 59°45' E 005°28'0 0.0
2015-Jul-23 00:32N 59°45' E 005°28'0 0.0
2015-Jul-22 23:32N 59°45' E 005°28'0 0.0
2015-Jul-22 22:33N 59°45' E 005°28'0 0.0
2015-Jul-22 21:32N 59°45' E 005°28'0 0.0
2015-Jul-22 20:32N 59°45' E 005°28'0 0.0
2015-Jul-22 19:32N 59°45' E 005°28'0 0.0
2015-Jul-22 18:33N 59°45' E 005°28'0 0.0
2015-Jul-22 17:32N 59°45' E 005°28'7 7.0
2015-Jul-22 16:33N 59°49' E 005°39'6 6.0
2015-Jul-22 15:33N 59°45' E 005°30'2 2.1
2015-Jul-22 14:33N 59°47' E 005°34'4 3.8
2015-Jul-22 13:33N 59°49' E 005°39'5 4.8
2015-Jul-22 12:33N 59°46' E 005°32'1 1.0
2015-Jul-22 11:33N 59°46' E 005°34'4 3.7
2015-Jul-22 10:33N 59°49' E 005°39'6 5.6
2015-Jul-22 09:33N 59°45' E 005°31'2 1.8
2015-Jul-22 08:33N 59°46' E 005°34'4 3.9
2015-Jul-22 07:33N 59°49' E 005°39'6 6.0
2015-Jul-22 06:33N 59°45' E 005°30'2 2.2
2015-Jul-22 05:33N 59°46' E 005°34'4 3.8
2015-Jul-22 04:33N 59°49' E 005°39'7 7.0
2015-Jul-22 03:33N 59°45' E 005°28'0 0.0
2015-Jul-22 02:32N 59°45' E 005°28'0 0.0
2015-Jul-22 01:32N 59°45' E 005°28'0 0.0
2015-Jul-22 00:33N 59°45' E 005°28'0 0.0
2015-Jul-21 23:32N 59°45' E 005°28'0 0.0
2015-Jul-21 22:14N 59°45' E 005°28'0 0.0
2015-Jul-21 21:33N 59°45' E 005°28'0 0.0
2015-Jul-21 20:33N 59°45' E 005°28'0 0.0
2015-Jul-21 19:33N 59°45' E 005°28'0 0.0
2015-Jul-21 18:33N 59°45' E 005°28'0 0.0
2015-Jul-21 17:32N 59°45' E 005°28'7 7.1
2015-Jul-21 16:33N 59°49' E 005°40'6 5.9
2015-Jul-21 15:33N 59°45' E 005°30'2 1.8
2015-Jul-21 14:33N 59°46' E 005°33'4 4.0
2015-Jul-21 13:33N 59°49' E 005°39'5 5.3
2015-Jul-21 12:32N 59°46' E 005°31'1 1.2
2015-Jul-21 11:33N 59°46' E 005°33'4 4.2
2015-Jul-21 10:33N 59°49' E 005°39'5 5.5
2015-Jul-21 09:33N 59°45' E 005°31'1 1.3
2015-Jul-21 08:32N 59°46' E 005°33'4 4.3
2015-Jul-21 07:33N 59°49' E 005°39'6 5.9
2015-Jul-21 06:33N 59°45' E 005°30'2 2.3
2015-Jul-21 05:33N 59°46' E 005°34'4 3.8
2015-Jul-21 04:33N 59°49' E 005°39'7 7.0
2015-Jul-21 03:33N 59°45' E 005°28'0 0.0
2015-Jul-21 02:33N 59°45' E 005°28'0 0.0
2015-Jul-21 01:32N 59°45' E 005°28'0 0.0
2015-Jul-21 00:32N 59°45' E 005°28'0 0.0
2015-Jul-20 23:32N 59°45' E 005°28'0 0.0
2015-Jul-20 22:33N 59°45' E 005°28'0 0.0
2015-Jul-20 21:32N 59°45' E 005°28'0 0.0
2015-Jul-20 20:32N 59°45' E 005°28'0 0.0
2015-Jul-20 19:32N 59°45' E 005°28'0 0.0
2015-Jul-20 18:33N 59°45' E 005°28'0 0.0
2015-Jul-20 17:32N 59°45' E 005°28'7 7.2
2015-Jul-20 16:33N 59°49' E 005°39'6 5.8
2015-Jul-20 15:33N 59°45' E 005°30'2 2.0
2015-Jul-20 14:33N 59°46' E 005°33'4 3.9
2015-Jul-20 13:33N 59°49' E 005°39'6 5.9
2015-Jul-20 12:33N 59°45' E 005°30'1 1.0
2015-Jul-20 11:33N 59°46' E 005°32'5 4.9
2015-Jul-20 10:32N 59°49' E 005°39'6 5.8
2015-Jul-20 09:33N 59°45' E 005°31'1 1.5
2015-Jul-20 08:33N 59°46' E 005°33'4 4.3
2015-Jul-20 07:33N 59°49' E 005°39'6 6.1
2015-Jul-20 06:33N 59°45' E 005°30'2 1.9
2015-Jul-20 05:32N 59°46' E 005°33'4 4.1
2015-Jul-20 04:33N 59°49' E 005°39'7 7.0
2015-Jul-20 03:32N 59°45' E 005°28'0 0.0
2015-Jul-20 00:33N 59°45' E 005°28'0 0.0
2015-Jul-19 23:33N 59°45' E 005°28'0 0.0
2015-Jul-19 22:32N 59°45' E 005°28'0 0.0
2015-Jul-19 21:33N 59°45' E 005°28'0 0.0
2015-Jul-19 20:32N 59°45' E 005°28'0 0.0
2015-Jul-19 19:33N 59°45' E 005°28'1 0.6
2015-Jul-19 18:33N 59°45' E 005°29'3 2.5
2015-Jul-19 17:33N 59°46' E 005°33'4 4.1
2015-Jul-19 16:33N 59°49' E 005°39'5 5.3
2015-Jul-19 15:33N 59°46' E 005°31'2 1.6
2015-Jul-19 14:33N 59°47' E 005°34'4 3.7
2015-Jul-19 13:33N 59°49' E 005°39'6 6.0
2015-Jul-19 12:33N 59°45' E 005°30'2 2.1
2015-Jul-19 11:33N 59°47' E 005°33'3 3.1
2015-Jul-19 10:32N 59°45' E 005°28'0 0.0
2015-Jul-19 09:32N 59°45' E 005°28'0 0.0
2015-Jul-19 08:33N 59°45' E 005°28'0 0.0
2015-Jul-19 07:32N 59°45' E 005°28'0 0.0
2015-Jul-19 06:34N 59°45' E 005°28'0 0.0
2015-Jul-19 05:32N 59°45' E 005°28'0 0.0
2015-Jul-19 04:33N 59°45' E 005°28'0 0.0
2015-Jul-19 00:32N 59°45' E 005°28'0 0.0
2015-Jul-18 23:32N 59°45' E 005°28'0 0.0
2015-Jul-18 22:33N 59°45' E 005°28'0 0.0
2015-Jul-18 21:32N 59°45' E 005°28'0 0.0
2015-Jul-18 20:32N 59°45' E 005°28'0 0.0
2015-Jul-18 19:32N 59°45' E 005°28'0 0.0
2015-Jul-18 18:33N 59°45' E 005°28'0 0.0
2015-Jul-18 17:33N 59°45' E 005°28'7 6.9
2015-Jul-18 16:33N 59°49' E 005°39'6 6.1
2015-Jul-18 15:33N 59°45' E 005°30'2 2.3
2015-Jul-18 14:33N 59°46' E 005°34'4 3.9
2015-Jul-18 13:33N 59°49' E 005°39'6 6.4
2015-Jul-18 12:33N 59°45' E 005°30'2 2.1
2015-Jul-18 11:33N 59°46' E 005°33'4 4.3
2015-Jul-18 10:33N 59°49' E 005°40'7 6.9
2015-Jul-18 09:32N 59°45' E 005°28'5 4.7
2015-Jul-18 08:33N 59°48' E 005°35'4 4.3
2015-Jul-18 07:33N 59°45' E 005°29'0 0.4
2015-Jul-18 06:32N 59°45' E 005°28'0 0.0
2015-Jul-18 05:33N 59°45' E 005°28'  

Dump ship's entire track history